createdAt,value
2019-01-18T00:02:30.486Z,13.77
2019-01-18T00:04:58.592Z,21.33
2019-01-18T00:07:26.508Z,27.23
2019-01-18T00:09:54.544Z,20.67
2019-01-18T00:12:22.359Z,19.87
2019-01-18T00:14:51.516Z,21.10
2019-01-18T00:17:19.222Z,14.03
2019-01-18T00:19:47.655Z,22.53
2019-01-18T00:22:15.363Z,17.97
2019-01-18T00:24:43.024Z,18.83
2019-01-18T00:27:10.865Z,20.50
2019-01-18T00:29:38.546Z,21.30
2019-01-18T00:32:06.658Z,26.07
2019-01-18T00:34:34.219Z,21.37
2019-01-18T00:37:02.291Z,15.97
2019-01-18T00:39:30.225Z,21.47
2019-01-18T00:41:58.050Z,20.67
2019-01-18T00:44:26.102Z,22.43
2019-01-18T00:46:54.175Z,16.43
2019-01-18T00:49:22.221Z,21.00
2019-01-18T00:51:49.970Z,12.10
2019-01-18T00:54:17.628Z,25.23
2019-01-18T00:56:45.352Z,28.77
2019-01-18T00:59:13.037Z,12.63
2019-01-18T01:01:41.056Z,19.97
2019-01-18T01:04:08.775Z,24.40
2019-01-18T01:06:36.492Z,20.67
2019-01-18T01:09:05.438Z,19.73
2019-01-18T01:11:33.201Z,21.90
2019-01-18T01:14:00.948Z,22.43
2019-01-18T01:16:28.634Z,23.77
2019-01-18T01:18:56.416Z,31.43
2019-01-18T01:21:24.161Z,29.57
2019-01-18T01:23:52.511Z,29.03
2019-01-18T01:26:20.293Z,33.53
2019-01-18T01:28:47.952Z,34.63
2019-01-18T01:31:15.630Z,40.63
2019-01-18T01:33:43.419Z,49.47
2019-01-18T01:36:11.078Z,32.87
2019-01-18T01:38:39.059Z,29.43
2019-01-18T01:41:06.747Z,29.57
2019-01-18T01:43:34.546Z,26.27
2019-01-18T01:46:02.191Z,17.30
2019-01-18T01:48:29.861Z,22.77
2019-01-18T01:50:57.959Z,26.40
2019-01-18T01:53:25.650Z,22.00
2019-01-18T01:55:53.322Z,31.80
2019-01-18T01:58:21.338Z,32.63
2019-01-18T02:00:48.909Z,24.40
2019-01-18T02:03:16.990Z,26.00
2019-01-18T02:05:44.660Z,27.30
2019-01-18T02:08:12.365Z,30.53
2019-01-18T02:10:40.150Z,24.97
2019-01-18T02:13:07.803Z,30.97
2019-01-18T02:15:35.575Z,29.27
2019-01-18T02:18:03.318Z,33.80
2019-01-18T02:20:31.232Z,23.57
2019-01-18T02:22:58.927Z,38.33
2019-01-18T02:25:26.609Z,29.00
2019-01-18T02:27:54.261Z,40.63
2019-01-18T02:30:23.195Z,43.10
2019-01-18T02:32:50.828Z,36.93
2019-01-18T02:35:18.517Z,44.80
2019-01-18T02:37:46.654Z,35.30
2019-01-18T02:40:14.975Z,35.77
2019-01-18T02:42:42.709Z,40.57
2019-01-18T02:45:11.604Z,35.73
2019-01-18T02:47:39.238Z,42.30
2019-01-18T02:50:07.447Z,35.00
2019-01-18T02:52:35.063Z,37.10
2019-01-18T02:55:03.916Z,41.60
2019-01-18T02:57:31.608Z,45.90
2019-01-18T03:00:04.652Z,43.43
2019-01-18T03:02:28.939Z,40.40
2019-01-18T03:04:56.995Z,35.13
2019-01-18T03:07:25.058Z,31.23
2019-01-18T03:09:52.709Z,36.67
2019-01-18T03:12:20.429Z,42.30
2019-01-18T03:14:48.539Z,37.07
2019-01-18T03:17:16.440Z,46.80
2019-01-18T03:19:44.496Z,58.83
2019-01-18T03:22:12.310Z,48.33
2019-01-18T03:24:40.591Z,44.97
2019-01-18T03:27:08.256Z,42.40
2019-01-18T03:29:36.003Z,47.07
2019-01-18T03:32:03.649Z,47.50
2019-01-18T03:34:31.406Z,42.30
2019-01-18T03:36:59.066Z,47.10
2019-01-18T03:39:28.027Z,54.60
2019-01-18T03:41:56.297Z,62.90
2019-01-18T03:44:23.989Z,42.70
2019-01-18T03:46:51.796Z,50.17
2019-01-18T03:49:19.506Z,50.93
2019-01-18T03:51:47.337Z,55.37
2019-01-18T03:54:15.209Z,61.53
2019-01-18T03:56:42.868Z,69.00
2019-01-18T03:59:10.688Z,61.23
2019-01-18T04:01:38.359Z,59.40
2019-01-18T04:04:06.063Z,65.27
2019-01-18T04:06:35.575Z,60.70
2019-01-18T04:09:05.646Z,64.77
2019-01-18T04:11:33.664Z,69.70
2019-01-18T04:14:01.628Z,66.93
2019-01-18T04:16:29.685Z,80.93
2019-01-18T04:18:57.572Z,81.80
2019-01-18T04:21:25.780Z,68.60
2019-01-18T04:23:53.460Z,65.77
2019-01-18T04:26:21.546Z,71.20
2019-01-18T04:28:49.256Z,76.67
2019-01-18T04:31:17.612Z,65.90
2019-01-18T04:33:45.339Z,65.73
2019-01-18T04:36:13.003Z,66.67
2019-01-18T04:38:40.719Z,67.10
2019-01-18T04:41:08.576Z,64.57
2019-01-18T04:43:36.598Z,67.97
2019-01-18T04:46:04.277Z,62.47
2019-01-18T04:48:32.011Z,67.37
2019-01-18T04:50:59.768Z,76.70
2019-01-18T04:53:27.658Z,85.17
2019-01-18T04:55:55.370Z,87.17
2019-01-18T04:58:23.198Z,70.40
2019-01-18T05:00:50.907Z,74.47
2019-01-18T05:03:18.721Z,65.77
2019-01-18T05:05:46.480Z,84.33
2019-01-18T05:08:14.612Z,81.57
2019-01-18T05:10:42.651Z,86.17
2019-01-18T05:13:11.101Z,94.33
2019-01-18T05:15:39.192Z,77.00
2019-01-18T05:18:06.851Z,100.60
2019-01-18T05:20:34.798Z,86.43
2019-01-18T05:23:03.182Z,77.87
2019-01-18T05:25:31.149Z,80.40
2019-01-18T05:27:58.802Z,84.33
2019-01-18T05:30:27.803Z,78.00
2019-01-18T05:32:55.454Z,70.27
2019-01-18T05:35:23.228Z,76.17
2019-01-18T05:37:50.939Z,69.63
2019-01-18T05:40:18.645Z,72.50
2019-01-18T05:42:46.355Z,78.30
2019-01-18T05:45:15.060Z,68.80
2019-01-18T05:47:42.668Z,72.40
2019-01-18T05:50:12.134Z,82.33
2019-01-18T05:52:40.278Z,74.43
2019-01-18T05:55:07.961Z,72.13
2019-01-18T05:57:35.666Z,64.17
2019-01-18T06:00:05.081Z,72.17
2019-01-18T06:02:32.783Z,61.00
2019-01-18T06:05:01.811Z,83.30
2019-01-18T06:07:29.900Z,67.70
2019-01-18T06:09:58.869Z,76.17
2019-01-18T06:12:26.591Z,68.40
2019-01-18T06:14:55.439Z,97.97
2019-01-18T06:17:23.062Z,106.77
2019-01-18T06:19:52.806Z,99.00
2019-01-18T06:22:20.569Z,96.47
2019-01-18T06:24:48.390Z,93.33
2019-01-18T06:27:16.156Z,87.77
2019-01-18T06:29:43.954Z,125.42
2019-01-18T06:32:11.630Z,110.77
2019-01-18T06:34:39.397Z,103.30
2019-01-18T06:37:07.279Z,101.30
2019-01-18T06:39:35.027Z,99.97
2019-01-18T06:42:02.756Z,118.27
2019-01-18T06:44:30.842Z,103.00
2019-01-18T06:46:58.682Z,111.47
2019-01-18T06:49:26.579Z,160.30
2019-01-18T06:51:54.269Z,94.00
2019-01-18T06:54:21.970Z,94.07
2019-01-18T06:56:50.787Z,104.33
2019-01-18T06:59:18.484Z,111.57
2019-01-18T07:01:46.143Z,111.70
2019-01-18T07:04:14.543Z,115.13
2019-01-18T07:06:42.410Z,100.83
2019-01-18T07:09:10.226Z,100.27
2019-01-18T07:11:38.272Z,117.43
2019-01-18T07:14:06.265Z,91.73
2019-01-18T07:16:34.427Z,117.70
2019-01-18T07:19:02.421Z,116.10
2019-01-18T07:21:30.072Z,125.57
2019-01-18T07:23:57.805Z,127.23
2019-01-18T07:26:27.003Z,121.83
2019-01-18T07:28:55.087Z,114.63
2019-01-18T07:31:22.653Z,101.27
2019-01-18T07:33:51.636Z,104.60
2019-01-18T07:36:19.965Z,101.13
2019-01-18T07:38:47.805Z,116.80
2019-01-18T07:41:16.164Z,124.57
2019-01-18T07:43:43.836Z,109.43
2019-01-18T07:46:12.178Z,117.03
2019-01-18T07:48:40.415Z,119.83
2019-01-18T07:51:09.291Z,107.27
2019-01-18T07:53:38.171Z,101.30
2019-01-18T07:56:06.262Z,99.30
2019-01-18T07:58:34.136Z,110.23
2019-01-18T08:01:02.269Z,114.13
2019-01-18T08:03:30.256Z,105.43
2019-01-18T08:05:58.305Z,107.30
2019-01-18T08:08:26.543Z,123.07
2019-01-18T08:10:54.614Z,110.97
2019-01-18T08:13:22.288Z,119.13
2019-01-18T08:15:50.481Z,121.57
2019-01-18T08:18:18.220Z,125.00
2019-01-18T08:20:46.076Z,133.40
2019-01-18T08:23:14.047Z,123.07
2019-01-18T08:25:41.753Z,112.93
2019-01-18T08:28:09.458Z,121.50
2019-01-18T08:30:37.540Z,114.87
2019-01-18T08:33:05.597Z,122.03
2019-01-18T08:35:33.793Z,127.57
2019-01-18T08:38:01.507Z,132.27
2019-01-18T08:40:33.631Z,135.60
2019-01-18T08:43:01.632Z,131.07
2019-01-18T08:45:34.046Z,129.97
2019-01-18T08:48:01.704Z,140.37
2019-01-18T08:50:29.497Z,144.57
2019-01-18T08:52:57.163Z,149.13
2019-01-18T08:55:25.226Z,157.77
2019-01-18T08:57:52.998Z,140.27
2019-01-18T09:00:21.456Z,149.93
2019-01-18T09:02:49.119Z,164.37
2019-01-18T09:05:18.236Z,153.37
2019-01-18T09:07:45.900Z,144.80
2019-01-18T09:10:14.724Z,142.47
2019-01-18T09:12:42.600Z,144.57
2019-01-18T09:15:10.525Z,137.53
2019-01-18T09:17:38.216Z,139.70
2019-01-18T09:20:08.000Z,137.40
2019-01-18T09:22:35.698Z,137.80
2019-01-18T09:25:04.779Z,128.27
2019-01-18T09:27:32.484Z,138.10
2019-01-18T09:30:01.743Z,132.83
2019-01-18T09:32:29.656Z,138.27
2019-01-18T09:34:57.346Z,132.20
2019-01-18T09:37:25.503Z,139.13
2019-01-18T09:39:53.204Z,137.93
2019-01-18T09:42:21.112Z,146.03
2019-01-18T09:44:48.800Z,142.20
2019-01-18T09:47:16.800Z,139.50
2019-01-18T09:49:44.853Z,139.30
2019-01-18T09:52:12.929Z,166.03
2019-01-18T09:54:40.669Z,181.93
2019-01-18T09:57:08.335Z,191.20
2019-01-18T09:59:36.034Z,190.27
2019-01-18T10:02:04.042Z,215.33
2019-01-18T10:04:32.170Z,215.23
2019-01-18T10:06:59.811Z,215.90
2019-01-18T10:09:27.517Z,218.33
2019-01-18T10:11:55.180Z,237.67
2019-01-18T10:14:23.273Z,240.20
2019-01-18T10:16:50.921Z,233.13
2019-01-18T10:19:18.655Z,232.57
2019-01-18T10:21:46.670Z,229.30
2019-01-18T10:24:14.505Z,214.77
2019-01-18T10:26:42.149Z,217.37
2019-01-18T10:29:09.873Z,230.40
2019-01-18T10:31:37.522Z,234.57
2019-01-18T10:34:05.328Z,226.13
2019-01-18T10:36:32.993Z,214.90
2019-01-18T10:39:00.721Z,198.90
2019-01-18T10:41:28.485Z,187.97
2019-01-18T10:43:56.319Z,214.03
2019-01-18T10:46:24.372Z,193.90
2019-01-18T10:48:53.142Z,172.90
2019-01-18T10:51:21.552Z,152.37
2019-01-18T10:53:49.234Z,156.70
2019-01-18T10:56:17.118Z,179.13
2019-01-18T10:58:44.786Z,155.07
2019-01-18T11:01:12.500Z,131.57
2019-01-18T11:03:40.264Z,146.03
2019-01-18T11:06:07.988Z,157.20
2019-01-18T11:08:35.816Z,198.00
2019-01-18T11:11:03.544Z,270.30
2019-01-18T11:13:31.297Z,309.53
2019-01-18T11:15:59.307Z,334.57
2019-01-18T11:18:27.561Z,360.47
2019-01-18T11:20:57.392Z,355.70
2019-01-18T11:23:25.236Z,316.60
2019-01-18T11:25:52.936Z,291.90
2019-01-18T11:28:20.773Z,252.27
2019-01-18T11:30:48.462Z,235.37
2019-01-18T11:33:16.174Z,212.27
2019-01-18T11:35:44.250Z,165.63
2019-01-18T11:38:12.598Z,141.40
2019-01-18T11:40:41.835Z,158.70
2019-01-18T11:43:09.741Z,144.67
2019-01-18T11:45:37.410Z,128.07
2019-01-18T11:48:05.369Z,118.47
2019-01-18T11:50:33.145Z,107.53
2019-01-18T11:53:00.862Z,102.63
2019-01-18T11:55:29.217Z,104.30
2019-01-18T11:57:56.846Z,107.47
2019-01-18T12:00:25.159Z,89.50
2019-01-18T12:02:53.003Z,102.57
2019-01-18T12:05:20.793Z,99.47
2019-01-18T12:07:48.884Z,99.83
2019-01-18T12:10:26.727Z,109.73
2019-01-18T12:12:54.800Z,102.03
2019-01-18T12:15:22.735Z,102.90
2019-01-18T12:17:50.981Z,112.87
2019-01-18T12:20:22.828Z,85.43
2019-01-18T12:22:51.334Z,102.17
2019-01-18T12:25:19.580Z,102.57
2019-01-18T12:27:47.630Z,87.20
2019-01-18T12:30:20.062Z,91.00
2019-01-18T12:32:48.112Z,87.27
2019-01-18T12:35:16.374Z,86.70
2019-01-18T12:37:44.402Z,89.23
2019-01-18T12:40:12.532Z,91.87
2019-01-18T12:42:40.867Z,91.23
2019-01-18T12:45:10.307Z,65.40
2019-01-18T12:47:38.356Z,86.63
2019-01-18T12:50:07.877Z,67.73
2019-01-18T12:52:35.949Z,70.27
2019-01-18T12:55:04.465Z,70.93
2019-01-18T12:57:32.146Z,70.23
2019-01-18T12:59:59.864Z,77.43
2019-01-18T13:02:27.753Z,64.87
2019-01-18T13:04:55.956Z,62.43
2019-01-18T13:07:23.629Z,62.83
2019-01-18T13:09:51.520Z,61.63
2019-01-18T13:12:19.496Z,64.33
2019-01-18T13:14:47.595Z,59.23
2019-01-18T13:17:15.589Z,57.37
2019-01-18T13:19:43.589Z,65.13
2019-01-18T13:22:11.342Z,66.27
2019-01-18T13:24:39.166Z,50.20
2019-01-18T13:27:07.314Z,40.80
2019-01-18T13:29:35.067Z,36.70
2019-01-18T13:32:03.955Z,36.17
2019-01-18T13:34:32.072Z,36.17
2019-01-18T13:36:59.934Z,25.47
2019-01-18T13:39:27.628Z,33.87
2019-01-18T13:41:55.377Z,30.20
2019-01-18T13:44:23.416Z,32.23
2019-01-18T13:46:51.112Z,35.10
2019-01-18T13:49:19.096Z,32.77
2019-01-18T13:51:47.139Z,35.93
2019-01-18T13:54:15.345Z,29.27
2019-01-18T13:56:43.390Z,31.70
2019-01-18T13:59:11.392Z,32.83
2019-01-18T14:01:39.938Z,27.43
2019-01-18T14:04:07.670Z,25.77
2019-01-18T14:06:36.139Z,25.60
2019-01-18T14:09:05.926Z,28.33
2019-01-18T14:11:33.716Z,32.83
2019-01-18T14:14:03.198Z,25.10
2019-01-18T14:16:30.867Z,32.80
2019-01-18T14:18:58.871Z,27.07
2019-01-18T14:21:26.542Z,24.77
2019-01-18T14:23:54.275Z,20.80
2019-01-18T14:26:22.319Z,30.03
2019-01-18T14:28:50.680Z,30.53
2019-01-18T14:31:18.371Z,22.47
2019-01-18T14:33:46.396Z,23.83
2019-01-18T14:36:14.759Z,24.27
2019-01-18T14:38:42.527Z,21.90
2019-01-18T14:41:15.675Z,22.37
2019-01-18T14:43:40.841Z,27.87
2019-01-18T14:46:08.915Z,26.13
2019-01-18T14:48:36.948Z,30.53
2019-01-18T14:51:04.685Z,21.67
2019-01-18T14:53:32.363Z,28.30
2019-01-18T14:56:00.488Z,26.77
2019-01-18T14:58:28.476Z,25.17
2019-01-18T15:00:56.472Z,26.37
2019-01-18T15:03:24.454Z,28.27
2019-01-18T15:05:52.479Z,22.27
2019-01-18T15:08:24.188Z,34.92
2019-01-18T15:10:50.076Z,31.53
2019-01-18T15:13:18.338Z,30.97
2019-01-18T15:15:46.890Z,32.30
2019-01-18T15:18:15.646Z,27.03
2019-01-18T15:20:45.030Z,28.10
2019-01-18T15:23:13.030Z,32.67
2019-01-18T15:25:41.020Z,26.00
2019-01-18T15:28:08.774Z,29.63
2019-01-18T15:30:36.485Z,25.00
2019-01-18T15:33:09.113Z,30.27
2019-01-18T15:35:35.070Z,28.30
2019-01-18T15:38:02.896Z,31.37
2019-01-18T15:40:32.228Z,41.43
2019-01-18T15:43:01.424Z,33.93
2019-01-18T15:45:29.205Z,32.00
2019-01-18T15:47:57.058Z,41.50
2019-01-18T15:50:25.957Z,37.60
2019-01-18T15:52:54.036Z,38.93
2019-01-18T15:55:21.892Z,47.03
2019-01-18T15:57:49.640Z,39.60
2019-01-18T16:00:18.830Z,40.20
2019-01-18T16:02:46.961Z,44.70
2019-01-18T16:05:14.836Z,41.77
2019-01-18T16:07:43.344Z,45.20
2019-01-18T16:10:11.057Z,51.53
2019-01-18T16:12:38.764Z,56.53
2019-01-18T16:15:07.694Z,55.87
2019-01-18T16:17:35.594Z,71.50
2019-01-18T16:20:06.445Z,66.87
2019-01-18T16:22:34.162Z,70.70
2019-01-18T16:25:02.014Z,75.97
2019-01-18T16:27:29.733Z,76.60
2019-01-18T16:29:57.483Z,75.87
2019-01-18T16:32:27.237Z,74.37
2019-01-18T16:34:54.962Z,87.93
2019-01-18T16:37:22.758Z,79.97
2019-01-18T16:39:51.150Z,76.40
2019-01-18T16:42:19.547Z,74.87
2019-01-18T16:44:47.381Z,85.37
2019-01-18T16:47:15.111Z,76.47
2019-01-18T16:49:42.954Z,79.30
2019-01-18T16:52:12.819Z,82.53
2019-01-18T16:54:40.701Z,83.17
2019-01-18T16:57:08.731Z,82.73
2019-01-18T16:59:36.710Z,80.37
2019-01-18T17:02:04.820Z,93.63
2019-01-18T17:04:32.627Z,89.30
2019-01-18T17:07:00.298Z,85.17
2019-01-18T17:09:28.004Z,110.07
2019-01-18T17:11:55.772Z,114.37
2019-01-18T17:14:23.535Z,127.63
2019-01-18T17:16:51.218Z,118.87
2019-01-18T17:19:19.053Z,124.40
2019-01-18T17:21:47.104Z,113.67
2019-01-18T17:24:15.488Z,111.00
2019-01-18T17:26:43.173Z,114.47
2019-01-18T17:29:11.043Z,121.87
2019-01-18T17:31:38.755Z,121.23
2019-01-18T17:34:07.603Z,129.97
2019-01-18T17:36:42.024Z,121.97
2019-01-18T17:39:15.926Z,133.13
2019-01-18T17:41:49.762Z,112.70
2019-01-18T17:44:38.203Z,128.83
2019-01-18T17:47:27.058Z,137.20
2019-01-18T17:50:14.289Z,163.63
2019-01-18T17:53:09.971Z,194.97
2019-01-18T17:55:55.858Z,159.53
2019-01-18T17:58:29.663Z,154.73
2019-01-18T18:01:27.248Z,151.87
2019-01-18T18:04:23.597Z,151.87
2019-01-18T18:07:11.990Z,146.00
2019-01-18T18:09:57.668Z,125.93
2019-01-18T18:12:54.334Z,136.53
2019-01-18T18:15:42.521Z,113.70
2019-01-18T18:18:30.092Z,125.67
2019-01-18T18:21:16.527Z,114.43
2019-01-18T18:23:48.624Z,124.87
2019-01-18T18:26:27.519Z,133.97
2019-01-18T18:29:20.907Z,121.47
2019-01-18T18:32:03.861Z,115.33
2019-01-18T18:34:47.006Z,119.30
2019-01-18T18:37:47.346Z,117.60
2019-01-18T18:40:33.630Z,113.73
2019-01-18T18:43:26.712Z,125.50
2019-01-18T18:46:12.601Z,139.07
2019-01-18T18:48:55.181Z,132.63
2019-01-18T18:51:35.760Z,141.50
2019-01-18T18:54:30.010Z,151.07
2019-01-18T18:57:17.189Z,143.13
2019-01-18T19:00:16.590Z,144.20
2019-01-18T19:03:05.626Z,130.47
2019-01-18T19:05:53.504Z,115.93
2019-01-18T19:08:45.502Z,120.10
2019-01-18T19:11:23.316Z,113.77
2019-01-18T19:14:17.035Z,116.83
2019-01-18T19:17:02.939Z,113.97
2019-01-18T19:20:00.338Z,118.20
2019-01-18T19:22:45.394Z,112.63
2019-01-18T19:25:34.754Z,112.17
2019-01-18T19:28:09.435Z,114.20
2019-01-18T19:31:00.719Z,106.10
2019-01-18T19:33:46.246Z,104.20
2019-01-18T19:36:33.594Z,107.43
2019-01-18T19:39:19.570Z,111.00
2019-01-18T19:42:21.813Z,109.63
2019-01-18T19:45:14.895Z,109.60
2019-01-18T19:47:45.902Z,119.87
2019-01-18T19:50:36.509Z,130.20
2019-01-18T19:53:11.790Z,136.00
2019-01-18T19:56:00.819Z,130.80
2019-01-18T19:58:47.054Z,124.80
2019-01-18T20:01:24.603Z,134.73
2019-01-18T20:03:59.921Z,134.90
2019-01-18T20:06:42.406Z,139.90
2019-01-18T20:09:19.274Z,146.47
2019-01-18T20:12:12.296Z,146.80
2019-01-18T20:14:58.666Z,150.47
2019-01-18T20:17:48.892Z,157.90
2019-01-18T20:20:45.586Z,144.33
2019-01-18T20:23:38.920Z,158.57
2019-01-18T20:26:24.675Z,145.40
2019-01-18T20:29:14.836Z,132.37
2019-01-18T20:31:56.224Z,134.57
2019-01-18T20:35:01.886Z,147.67
2019-01-18T20:37:58.031Z,145.10
2019-01-18T20:40:45.567Z,141.40
2019-01-18T20:43:40.082Z,143.00
2019-01-18T20:46:13.395Z,130.10
2019-01-18T20:48:44.342Z,125.87
2019-01-18T20:51:17.302Z,132.30
2019-01-18T20:53:54.697Z,130.93
2019-01-18T20:56:40.744Z,144.60
2019-01-18T20:59:17.584Z,134.87
2019-01-18T21:02:04.696Z,132.53
2019-01-18T21:05:05.381Z,144.23
2019-01-18T21:07:55.535Z,147.70
2019-01-18T21:10:41.506Z,135.20
2019-01-18T21:13:28.716Z,125.23
2019-01-18T21:16:34.365Z,121.33
2019-01-18T21:19:24.411Z,126.00
2019-01-18T21:22:11.689Z,125.23
2019-01-18T21:24:47.650Z,136.30
2019-01-18T21:27:29.968Z,138.80
2019-01-18T21:30:20.228Z,124.90
2019-01-18T21:33:06.449Z,134.97
2019-01-18T21:35:51.602Z,125.53
2019-01-18T21:38:29.067Z,133.00
2019-01-18T21:41:04.305Z,122.30
2019-01-18T21:44:03.735Z,140.83
2019-01-18T21:47:04.113Z,127.53
2019-01-18T21:50:02.914Z,131.83
2019-01-18T21:52:57.475Z,144.10
2019-01-18T21:55:40.185Z,133.63
2019-01-18T21:58:30.283Z,134.10
2019-01-18T22:01:35.972Z,134.23
2019-01-18T22:04:28.246Z,131.73
2019-01-18T22:07:21.687Z,135.70
2019-01-18T22:09:53.627Z,143.67
2019-01-18T22:12:42.464Z,142.13
2019-01-18T22:15:17.000Z,131.47
2019-01-18T22:18:05.355Z,157.20
2019-01-18T22:20:39.971Z,161.77
2019-01-18T22:23:42.673Z,143.10
2019-01-18T22:26:32.846Z,141.03
2019-01-18T22:29:13.388Z,144.53
2019-01-18T22:31:56.929Z,142.93
2019-01-18T22:34:37.203Z,141.03
2019-01-18T22:37:30.808Z,149.83
2019-01-18T22:40:20.296Z,148.83
2019-01-18T22:43:13.691Z,156.03
2019-01-18T22:45:53.952Z,166.67
2019-01-18T22:48:33.733Z,146.77
2019-01-18T22:51:21.172Z,145.40
2019-01-18T22:53:53.295Z,145.30
2019-01-18T22:56:26.903Z,151.37
2019-01-18T22:59:17.550Z,172.47
2019-01-18T23:02:08.162Z,148.70
2019-01-18T23:05:02.782Z,166.60
2019-01-18T23:07:40.961Z,160.80
2019-01-18T23:10:31.188Z,161.23
2019-01-18T23:13:33.712Z,151.50
2019-01-18T23:16:27.033Z,143.07
2019-01-18T23:19:05.564Z,143.50
2019-01-18T23:21:59.000Z,120.37
2019-01-18T23:24:32.835Z,155.17
2019-01-18T23:27:20.846Z,143.80
2019-01-18T23:30:20.299Z,148.60
2019-01-18T23:33:13.539Z,146.57
2019-01-18T23:36:10.765Z,140.33
2019-01-18T23:39:07.142Z,140.77
2019-01-18T23:41:54.690Z,139.23
2019-01-18T23:44:35.117Z,135.37
2019-01-18T23:47:22.831Z,129.30
2019-01-18T23:50:09.166Z,126.83
2019-01-18T23:53:02.794Z,156.87
2019-01-18T23:55:43.097Z,200.20
2019-01-18T23:58:17.259Z,189.07
